createdAt,value
2017-06-13T00:00:46.937Z,59.60
2017-06-13T00:03:14.505Z,59.50
2017-06-13T00:05:42.067Z,59.70
2017-06-13T00:08:09.638Z,59.60
2017-06-13T00:10:37.198Z,59.70
2017-06-13T00:13:04.779Z,59.90
2017-06-13T00:15:32.329Z,59.80
2017-06-13T00:17:59.898Z,60.00
2017-06-13T00:20:27.483Z,60.20
2017-06-13T00:22:55.356Z,60.50
2017-06-13T00:25:23.717Z,60.60
2017-06-13T00:27:52.193Z,61.60
2017-06-13T00:30:19.754Z,60.60
2017-06-13T00:32:48.129Z,60.60
2017-06-13T00:35:15.701Z,60.50
2017-06-13T00:37:44.036Z,61.00
2017-06-13T00:40:11.625Z,61.00
2017-06-13T00:42:39.242Z,61.00
2017-06-13T00:45:06.851Z,60.90
2017-06-13T00:47:34.415Z,60.70
2017-06-13T00:50:01.982Z,61.30
2017-06-13T00:52:30.309Z,61.00
2017-06-13T00:54:57.878Z,60.90
2017-06-13T00:57:25.564Z,61.00
2017-06-13T00:59:53.135Z,61.10
2017-06-13T01:02:20.697Z,61.10
2017-06-13T01:04:49.050Z,62.30
2017-06-13T01:07:16.626Z,61.20
2017-06-13T01:09:44.187Z,61.40
2017-06-13T01:12:11.814Z,61.40
2017-06-13T01:14:39.378Z,61.20
2017-06-13T01:17:06.956Z,61.30
2017-06-13T01:19:34.551Z,61.40
2017-06-13T01:22:02.133Z,61.40
2017-06-13T01:24:29.783Z,61.50
2017-06-13T01:26:58.158Z,61.80
2017-06-13T01:29:25.722Z,61.80
2017-06-13T01:31:54.061Z,62.30
2017-06-13T01:34:21.673Z,62.30
2017-06-13T01:36:49.250Z,62.20
2017-06-13T01:39:16.836Z,62.30
2017-06-13T01:41:44.389Z,62.30
2017-06-13T01:44:11.949Z,62.60
2017-06-13T01:46:39.539Z,62.80
2017-06-13T01:49:07.100Z,63.00
2017-06-13T01:51:34.832Z,63.10
2017-06-13T01:54:02.398Z,63.00
2017-06-13T01:56:29.978Z,63.60
2017-06-13T01:58:57.549Z,63.40
2017-06-13T02:01:25.134Z,63.80
2017-06-13T02:03:53.669Z,64.20
2017-06-13T02:06:21.258Z,64.20
2017-06-13T02:08:48.817Z,64.10
2017-06-13T02:11:16.398Z,64.20
2017-06-13T02:13:43.970Z,64.60
2017-06-13T02:16:12.429Z,64.30
2017-06-13T02:18:40.010Z,64.40
2017-06-13T02:21:08.342Z,64.20
2017-06-13T02:23:35.893Z,64.20
2017-06-13T02:26:03.478Z,64.20
2017-06-13T02:28:31.079Z,64.70
2017-06-13T02:30:58.644Z,64.50
2017-06-13T02:33:26.190Z,64.70
2017-06-13T02:35:54.533Z,65.10
2017-06-13T02:38:22.134Z,65.00
2017-06-13T02:40:49.716Z,65.10
2017-06-13T02:43:17.280Z,65.70
2017-06-13T02:45:44.891Z,65.90
2017-06-13T02:48:12.449Z,65.70
2017-06-13T02:50:39.994Z,65.70
2017-06-13T02:53:07.579Z,66.20
2017-06-13T02:55:35.131Z,66.50
2017-06-13T02:58:02.813Z,66.40
2017-06-13T03:00:31.132Z,67.20
2017-06-13T03:02:58.683Z,66.70
2017-06-13T03:05:26.273Z,67.20
2017-06-13T03:07:53.822Z,67.20
2017-06-13T03:10:21.447Z,67.60
2017-06-13T03:12:49.789Z,67.90
2017-06-13T03:15:17.365Z,67.80
2017-06-13T03:17:44.931Z,67.80
2017-06-13T03:20:13.261Z,68.10
2017-06-13T03:22:40.870Z,68.00
2017-06-13T03:25:09.213Z,68.30
2017-06-13T03:27:37.702Z,67.70
2017-06-13T03:30:05.330Z,68.00
2017-06-13T03:32:32.902Z,67.70
2017-06-13T03:35:00.503Z,67.90
2017-06-13T03:37:28.058Z,68.20
2017-06-13T03:39:55.645Z,68.00
2017-06-13T03:42:23.980Z,68.50
2017-06-13T03:44:51.558Z,68.40
2017-06-13T03:47:19.148Z,68.50
2017-06-13T03:49:47.481Z,68.60
2017-06-13T03:52:15.170Z,68.50
2017-06-13T03:54:42.755Z,68.30
2017-06-13T03:57:11.074Z,68.70
2017-06-13T03:59:38.650Z,68.50
2017-06-13T04:02:06.234Z,68.80
2017-06-13T04:04:33.789Z,68.60
2017-06-13T04:07:01.354Z,68.60
2017-06-13T04:09:28.930Z,68.80
2017-06-13T04:11:57.277Z,68.40
2017-06-13T04:14:24.855Z,68.30
2017-06-13T04:16:52.429Z,68.60
2017-06-13T04:19:20.786Z,69.20
2017-06-13T04:21:48.337Z,68.20
2017-06-13T04:24:15.910Z,68.30
2017-06-13T04:26:43.506Z,68.30
2017-06-13T04:29:11.890Z,68.70
2017-06-13T04:31:39.458Z,68.50
2017-06-13T04:34:07.041Z,68.50
2017-06-13T04:36:34.628Z,68.00
2017-06-13T04:39:02.847Z,68.10
2017-06-13T04:41:30.438Z,68.10
2017-06-13T04:43:58.009Z,68.20
2017-06-13T04:46:25.614Z,68.00
2017-06-13T04:48:53.949Z,67.90
2017-06-13T04:51:21.510Z,67.80
2017-06-13T04:53:49.079Z,67.30
2017-06-13T04:56:16.653Z,67.40
2017-06-13T04:58:44.312Z,67.50
2017-06-13T05:01:11.902Z,67.60
2017-06-13T05:03:39.465Z,68.20
2017-06-13T05:06:07.839Z,67.70
2017-06-13T05:08:36.189Z,65.80
2017-06-13T05:11:03.757Z,65.80
2017-06-13T05:13:31.321Z,65.50
2017-06-13T05:15:58.899Z,65.20
2017-06-13T05:18:27.253Z,65.80
2017-06-13T05:20:54.842Z,65.70
2017-06-13T05:23:22.420Z,65.40
2017-06-13T05:25:49.979Z,65.10
2017-06-13T05:28:17.531Z,65.00
2017-06-13T05:30:45.878Z,64.70
2017-06-13T05:33:13.460Z,64.70
2017-06-13T05:35:41.793Z,63.60
2017-06-13T05:38:09.393Z,64.40
2017-06-13T05:40:37.751Z,60.90
2017-06-13T05:43:05.322Z,59.90
2017-06-13T05:45:32.871Z,57.10
2017-06-13T05:48:00.504Z,53.60
2017-06-13T05:50:28.052Z,51.20
2017-06-13T05:52:55.642Z,49.30
2017-06-13T05:55:23.235Z,47.70
2017-06-13T05:57:50.788Z,46.00
2017-06-13T06:00:18.370Z,46.50
2017-06-13T06:02:45.934Z,45.10
2017-06-13T06:05:13.510Z,45.20
2017-06-13T06:07:41.835Z,42.90
2017-06-13T06:10:09.434Z,42.80
2017-06-13T06:12:37.038Z,44.60
2017-06-13T06:15:04.611Z,43.70
2017-06-13T06:17:32.174Z,42.80
2017-06-13T06:20:03.007Z,43.90
2017-06-13T06:22:31.376Z,50.10
2017-06-13T06:24:59.027Z,49.40
2017-06-13T06:27:26.590Z,51.30
2017-06-13T06:29:54.151Z,53.40
2017-06-13T06:32:21.723Z,54.50
2017-06-13T06:34:49.289Z,55.50
2017-06-13T06:37:16.876Z,56.00
2017-06-13T06:39:44.450Z,55.70
2017-06-13T06:42:12.001Z,54.80
2017-06-13T06:44:39.598Z,55.00
2017-06-13T06:47:07.167Z,54.40
2017-06-13T06:49:34.737Z,53.80
2017-06-13T06:52:02.310Z,55.00
2017-06-13T06:54:29.889Z,55.60
2017-06-13T06:56:57.444Z,55.60
2017-06-13T06:59:25.010Z,56.20
2017-06-13T07:01:52.609Z,56.90
2017-06-13T07:04:20.978Z,58.10
2017-06-13T07:06:49.301Z,58.80
2017-06-13T07:09:16.898Z,58.70
2017-06-13T07:11:44.475Z,58.90
2017-06-13T07:14:12.045Z,58.70
2017-06-13T07:16:39.609Z,58.30
2017-06-13T07:19:07.952Z,57.20
2017-06-13T07:21:35.553Z,57.10
2017-06-13T07:24:03.121Z,52.70
2017-06-13T07:26:31.445Z,46.70
2017-06-13T07:28:59.042Z,46.70
2017-06-13T07:31:27.389Z,41.90
2017-06-13T07:33:54.937Z,41.50
2017-06-13T07:36:22.515Z,43.90
2017-06-13T07:38:50.112Z,47.10
2017-06-13T07:41:18.441Z,52.20
2017-06-13T07:43:46.015Z,52.00
2017-06-13T07:46:13.636Z,53.30
2017-06-13T07:48:41.207Z,55.50
2017-06-13T07:51:08.777Z,53.40
2017-06-13T07:53:36.363Z,48.70
2017-06-13T07:56:03.935Z,44.80
2017-06-13T07:58:31.500Z,44.90
2017-06-13T08:00:59.090Z,46.00
2017-06-13T08:03:26.676Z,48.00
2017-06-13T08:05:54.274Z,50.40
2017-06-13T08:08:21.866Z,52.40
2017-06-13T08:10:50.181Z,55.60
2017-06-13T08:13:17.757Z,55.50
2017-06-13T08:15:45.417Z,55.70
2017-06-13T08:18:12.996Z,53.70
2017-06-13T08:20:40.578Z,50.60
2017-06-13T08:23:08.937Z,51.20
2017-06-13T08:25:36.497Z,50.80
2017-06-13T08:28:04.076Z,51.60
2017-06-13T08:30:31.639Z,52.90
2017-06-13T08:32:59.222Z,53.80
2017-06-13T08:35:26.803Z,54.50
2017-06-13T08:37:54.394Z,55.60
2017-06-13T08:40:21.989Z,56.50
2017-06-13T08:42:50.337Z,56.00
2017-06-13T08:45:17.938Z,55.80
2017-06-13T08:47:46.266Z,54.00
2017-06-13T08:50:13.822Z,53.90
2017-06-13T08:52:41.431Z,52.40
2017-06-13T08:55:08.993Z,52.00
2017-06-13T08:57:37.334Z,52.90
2017-06-13T09:00:04.931Z,52.30
2017-06-13T09:02:33.295Z,52.00
2017-06-13T09:05:00.851Z,52.00
2017-06-13T09:07:28.427Z,50.50
2017-06-13T09:09:56.014Z,49.20
2017-06-13T09:12:23.582Z,46.90
2017-06-13T09:14:51.190Z,45.40
2017-06-13T09:17:18.738Z,45.30
2017-06-13T09:19:46.303Z,44.40
2017-06-13T09:22:13.914Z,45.50
2017-06-13T09:24:41.483Z,46.40
2017-06-13T09:27:09.055Z,48.00
2017-06-13T09:29:36.740Z,48.70
2017-06-13T09:32:04.314Z,50.00
2017-06-13T09:34:31.910Z,51.40
2017-06-13T09:36:59.486Z,51.10
2017-06-13T09:39:27.051Z,51.80
2017-06-13T09:41:54.634Z,50.50
2017-06-13T09:44:22.301Z,50.80
2017-06-13T09:46:49.889Z,48.20
2017-06-13T09:49:17.458Z,44.60
2017-06-13T09:51:45.025Z,40.60
2017-06-13T09:54:12.627Z,39.30
2017-06-13T09:56:40.186Z,42.50
2017-06-13T09:59:07.774Z,43.70
2017-06-13T10:01:35.370Z,45.20
2017-06-13T10:04:02.938Z,46.70
2017-06-13T10:06:31.291Z,50.10
2017-06-13T10:08:58.930Z,50.10
2017-06-13T10:11:26.485Z,49.00
2017-06-13T10:13:54.059Z,50.30
2017-06-13T10:16:21.629Z,50.90
2017-06-13T10:18:49.203Z,51.20
2017-06-13T10:21:16.800Z,51.10
2017-06-13T10:23:44.439Z,51.40
2017-06-13T10:26:12.014Z,52.90
2017-06-13T10:28:40.375Z,52.50
2017-06-13T10:31:07.951Z,52.50
2017-06-13T10:33:36.299Z,51.00
2017-06-13T10:36:03.887Z,50.90
2017-06-13T10:38:32.223Z,48.00
2017-06-13T10:40:59.809Z,48.50
2017-06-13T10:43:27.385Z,48.70
2017-06-13T10:45:54.933Z,45.40
2017-06-13T10:48:22.503Z,42.80
2017-06-13T10:50:50.051Z,43.70
2017-06-13T10:53:17.630Z,43.10
2017-06-13T10:55:45.987Z,43.60
2017-06-13T10:58:13.549Z,43.10
2017-06-13T11:00:41.132Z,43.30
2017-06-13T11:03:08.734Z,43.00
2017-06-13T11:05:36.278Z,43.00
2017-06-13T11:08:03.830Z,41.60
2017-06-13T11:10:31.406Z,43.00
2017-06-13T11:12:58.962Z,41.10
2017-06-13T11:15:26.526Z,42.40
2017-06-13T11:17:54.126Z,41.50
2017-06-13T11:20:21.682Z,40.00
2017-06-13T11:22:49.307Z,39.60
2017-06-13T11:25:16.930Z,40.30
2017-06-13T11:27:44.497Z,40.50
2017-06-13T11:30:12.065Z,41.40
2017-06-13T11:32:39.643Z,38.70
2017-06-13T11:35:08.018Z,41.20
2017-06-13T11:37:36.380Z,38.00
2017-06-13T11:40:03.944Z,38.00
2017-06-13T11:42:32.290Z,40.60
2017-06-13T11:44:59.846Z,40.70
2017-06-13T11:47:27.786Z,39.80
2017-06-13T11:49:55.377Z,39.10
2017-06-13T11:52:22.942Z,40.20
2017-06-13T11:54:50.530Z,40.30
2017-06-13T11:57:18.089Z,42.40
2017-06-13T11:59:45.683Z,40.70
2017-06-13T12:02:13.245Z,41.60
2017-06-13T12:04:40.818Z,42.50
2017-06-13T12:07:08.394Z,42.80
2017-06-13T12:09:35.950Z,44.70
2017-06-13T12:12:03.582Z,45.40
2017-06-13T12:14:31.174Z,45.50
2017-06-13T12:16:58.772Z,45.00
2017-06-13T12:19:26.319Z,44.70
2017-06-13T12:21:53.936Z,44.90
2017-06-13T12:24:21.487Z,46.10
2017-06-13T12:26:49.050Z,45.40
2017-06-13T12:29:16.674Z,47.00
2017-06-13T12:31:44.237Z,44.40
2017-06-13T12:34:11.927Z,44.70
2017-06-13T12:36:40.421Z,44.40
2017-06-13T12:39:07.976Z,44.40
2017-06-13T12:41:36.314Z,44.50
2017-06-13T12:44:03.919Z,44.50
2017-06-13T12:46:31.503Z,43.50
2017-06-13T12:48:59.065Z,41.00
2017-06-13T12:51:26.625Z,42.30
2017-06-13T12:53:54.228Z,42.30
2017-06-13T12:56:21.800Z,39.50
2017-06-13T12:58:49.362Z,41.90
2017-06-13T13:01:16.959Z,39.40
2017-06-13T13:03:44.528Z,40.70
2017-06-13T13:06:12.090Z,40.40
2017-06-13T13:08:39.669Z,40.90
2017-06-13T13:11:07.234Z,42.30
2017-06-13T13:13:34.813Z,40.90
2017-06-13T13:16:02.383Z,42.40
2017-06-13T13:18:29.952Z,39.90
2017-06-13T13:20:57.552Z,40.00
2017-06-13T13:23:25.103Z,40.10
2017-06-13T13:25:52.695Z,38.90
2017-06-13T13:28:20.262Z,38.70
2017-06-13T13:30:47.852Z,40.20
2017-06-13T13:33:15.458Z,40.50
2017-06-13T13:35:43.005Z,39.80
2017-06-13T13:38:10.598Z,40.20
2017-06-13T13:40:38.171Z,39.30
2017-06-13T13:43:05.742Z,42.00
2017-06-13T13:45:33.355Z,43.30
2017-06-13T13:48:00.986Z,40.50
2017-06-13T13:50:28.578Z,42.60
2017-06-13T13:52:56.151Z,39.40
2017-06-13T13:55:23.717Z,38.50
2017-06-13T13:57:51.310Z,39.80
2017-06-13T14:00:18.869Z,38.90
2017-06-13T14:02:46.439Z,39.20
2017-06-13T14:05:14.038Z,39.10
2017-06-13T14:07:41.633Z,40.00
2017-06-13T14:10:09.183Z,38.00
2017-06-13T14:12:36.773Z,40.10
2017-06-13T14:15:04.350Z,41.50
2017-06-13T14:17:31.966Z,41.80
2017-06-13T14:19:59.511Z,40.50
2017-06-13T14:22:27.084Z,39.30
2017-06-13T14:24:54.692Z,39.80
2017-06-13T14:27:22.279Z,39.40
2017-06-13T14:29:50.666Z,39.80
2017-06-13T14:32:18.978Z,39.80
2017-06-13T14:34:46.538Z,39.80
2017-06-13T14:37:14.119Z,40.40
2017-06-13T14:39:41.730Z,40.70
2017-06-13T14:42:09.295Z,39.60
2017-06-13T14:44:36.922Z,41.30
2017-06-13T14:47:04.479Z,40.70
2017-06-13T14:49:32.053Z,44.20
2017-06-13T14:51:59.622Z,42.00
2017-06-13T14:54:27.965Z,41.50
2017-06-13T14:56:55.554Z,41.50
2017-06-13T14:59:23.123Z,41.00
2017-06-13T15:01:51.482Z,41.30
2017-06-13T15:04:19.079Z,41.20
2017-06-13T15:06:46.642Z,41.30
2017-06-13T15:09:14.238Z,40.30
2017-06-13T15:11:41.803Z,38.60
2017-06-13T15:14:09.362Z,38.70
2017-06-13T15:16:36.950Z,39.80
2017-06-13T15:19:04.502Z,40.80
2017-06-13T15:21:32.131Z,41.10
2017-06-13T15:23:59.694Z,41.20
2017-06-13T15:26:27.259Z,39.80
2017-06-13T15:28:54.830Z,40.50
2017-06-13T15:31:22.422Z,41.30
2017-06-13T15:33:50.799Z,40.90
2017-06-13T15:36:18.371Z,40.20
2017-06-13T15:38:45.931Z,41.70
2017-06-13T15:41:13.517Z,43.00
2017-06-13T15:43:41.128Z,43.80
2017-06-13T15:46:08.751Z,44.10
2017-06-13T15:48:36.324Z,44.70
2017-06-13T15:51:03.895Z,45.70
2017-06-13T15:53:31.500Z,45.50
2017-06-13T15:55:59.072Z,45.10
2017-06-13T15:58:26.788Z,46.20
2017-06-13T16:00:54.349Z,45.00
2017-06-13T16:03:21.930Z,45.60
2017-06-13T16:05:49.510Z,44.50
2017-06-13T16:08:17.841Z,45.40
2017-06-13T16:10:45.413Z,45.30
2017-06-13T16:13:13.003Z,44.90
2017-06-13T16:15:40.609Z,44.70
2017-06-13T16:18:08.210Z,45.00
2017-06-13T16:20:35.773Z,45.10
2017-06-13T16:23:03.326Z,46.00
2017-06-13T16:25:30.922Z,45.60
2017-06-13T16:27:59.261Z,45.40
2017-06-13T16:30:26.870Z,45.30
2017-06-13T16:32:54.509Z,46.70
2017-06-13T16:35:22.843Z,48.10
2017-06-13T16:37:50.434Z,47.40
2017-06-13T16:40:18.004Z,46.60
2017-06-13T16:42:45.609Z,47.30
2017-06-13T16:45:13.214Z,45.30
2017-06-13T16:47:40.906Z,45.90
2017-06-13T16:50:08.532Z,46.20
2017-06-13T16:52:36.108Z,47.30
2017-06-13T16:55:03.681Z,45.20
2017-06-13T16:57:31.287Z,43.90
2017-06-13T16:59:58.862Z,43.90
2017-06-13T17:02:26.526Z,44.30
2017-06-13T17:04:54.122Z,45.10
2017-06-13T17:07:21.783Z,44.10
2017-06-13T17:09:49.390Z,43.50
2017-06-13T17:12:16.983Z,44.40
2017-06-13T17:14:44.561Z,44.20
2017-06-13T17:17:12.142Z,46.10
2017-06-13T17:19:39.761Z,45.50
2017-06-13T17:22:07.347Z,47.20
2017-06-13T17:24:34.938Z,47.80
2017-06-13T17:27:02.546Z,48.70
2017-06-13T17:29:30.116Z,48.80
2017-06-13T17:31:57.694Z,49.60
2017-06-13T17:34:25.284Z,50.10
2017-06-13T17:36:52.834Z,49.60
2017-06-13T17:39:20.435Z,49.40
2017-06-13T17:41:48.017Z,50.20
2017-06-13T17:44:15.606Z,48.90
2017-06-13T17:46:43.214Z,49.90
2017-06-13T17:49:10.806Z,49.80
2017-06-13T17:51:38.369Z,51.40
2017-06-13T17:54:06.119Z,49.80
2017-06-13T17:56:33.724Z,50.80
2017-06-13T17:59:02.064Z,50.70
2017-06-13T18:01:29.634Z,50.50
2017-06-13T18:03:57.202Z,50.40
2017-06-13T18:06:24.790Z,50.20
2017-06-13T18:08:53.167Z,50.70
2017-06-13T18:11:21.505Z,50.50
2017-06-13T18:13:49.078Z,50.60
2017-06-13T18:16:16.651Z,51.70
2017-06-13T18:18:44.238Z,50.20
2017-06-13T18:21:11.803Z,51.40
2017-06-13T18:23:39.381Z,50.90
2017-06-13T18:26:06.954Z,51.20
2017-06-13T18:28:34.652Z,51.20
2017-06-13T18:31:02.256Z,50.10
2017-06-13T18:33:29.861Z,51.20
2017-06-13T18:35:57.413Z,51.30
2017-06-13T18:38:25.002Z,51.50
2017-06-13T18:40:52.602Z,50.60
2017-06-13T18:43:20.186Z,51.70
2017-06-13T18:45:47.751Z,50.70
2017-06-13T18:48:15.357Z,51.40
2017-06-13T18:50:43.685Z,50.40
2017-06-13T18:53:11.255Z,49.80
2017-06-13T18:55:38.871Z,50.50
2017-06-13T18:58:07.213Z,50.70
2017-06-13T19:00:34.804Z,50.40
2017-06-13T19:03:03.156Z,51.40
2017-06-13T19:05:30.794Z,51.00
2017-06-13T19:07:58.378Z,51.20
2017-06-13T19:10:25.955Z,51.30
2017-06-13T19:12:53.544Z,51.30
2017-06-13T19:15:21.131Z,52.20
2017-06-13T19:17:48.708Z,51.10
2017-06-13T19:20:16.293Z,51.70
2017-06-13T19:22:43.867Z,52.50
2017-06-13T19:25:11.471Z,52.50
2017-06-13T19:27:39.046Z,52.40
2017-06-13T19:30:06.632Z,52.70
2017-06-13T19:32:34.234Z,52.70
2017-06-13T19:35:01.835Z,52.90
2017-06-13T19:37:29.433Z,53.10
2017-06-13T19:39:57.015Z,54.60
2017-06-13T19:42:24.603Z,55.00
2017-06-13T19:44:52.206Z,54.70
2017-06-13T19:47:19.767Z,54.70
2017-06-13T19:49:47.379Z,55.50
2017-06-13T19:52:14.954Z,56.30
2017-06-13T19:54:42.590Z,55.50
2017-06-13T19:57:10.189Z,56.10
2017-06-13T19:59:37.754Z,56.00
2017-06-13T20:02:05.347Z,56.40
2017-06-13T20:04:33.194Z,57.00
2017-06-13T20:07:00.756Z,57.30
2017-06-13T20:09:28.341Z,57.30
2017-06-13T20:11:56.682Z,58.00
2017-06-13T20:14:24.259Z,57.90
2017-06-13T20:16:51.874Z,58.20
2017-06-13T20:19:19.515Z,58.60
2017-06-13T20:21:47.074Z,59.10
2017-06-13T20:24:14.641Z,59.70
2017-06-13T20:26:43.031Z,61.10
2017-06-13T20:29:14.505Z,61.10
2017-06-13T20:31:42.099Z,62.20
2017-06-13T20:34:09.704Z,62.40
2017-06-13T20:36:37.264Z,62.40
2017-06-13T20:39:04.857Z,62.40
2017-06-13T20:41:32.547Z,63.00
2017-06-13T20:44:00.117Z,63.40
2017-06-13T20:46:27.789Z,64.00
2017-06-13T20:48:56.142Z,65.10
2017-06-13T20:51:23.733Z,65.10
2017-06-13T20:53:53.265Z,66.50
2017-06-13T20:56:21.029Z,66.40
2017-06-13T20:58:48.576Z,66.80
2017-06-13T21:01:16.894Z,68.20
2017-06-13T21:03:44.494Z,68.20
2017-06-13T21:06:12.122Z,68.20
2017-06-13T21:08:39.690Z,68.40
2017-06-13T21:11:07.266Z,68.30
2017-06-13T21:13:34.830Z,68.70
2017-06-13T21:16:02.414Z,69.30
2017-06-13T21:18:30.794Z,69.50
2017-06-13T21:20:59.125Z,69.20
2017-06-13T21:23:26.699Z,69.10
2017-06-13T21:25:54.290Z,68.60
2017-06-13T21:28:22.663Z,69.70
2017-06-13T21:30:50.261Z,69.70
2017-06-13T21:33:17.837Z,70.20
2017-06-13T21:35:45.441Z,70.70
2017-06-13T21:38:13.005Z,70.50
2017-06-13T21:40:40.649Z,71.10
2017-06-13T21:43:08.225Z,71.20
2017-06-13T21:45:35.790Z,71.40
2017-06-13T21:48:04.137Z,72.20
2017-06-13T21:50:31.710Z,71.70
2017-06-13T21:52:59.282Z,71.80
2017-06-13T21:55:26.837Z,72.00
2017-06-13T21:57:54.469Z,72.50
2017-06-13T22:00:22.029Z,72.70
2017-06-13T22:02:49.630Z,72.60
2017-06-13T22:05:17.211Z,72.20
2017-06-13T22:07:45.545Z,73.10
2017-06-13T22:10:13.144Z,73.00
2017-06-13T22:12:40.686Z,73.40
2017-06-13T22:15:08.281Z,73.70
2017-06-13T22:17:35.853Z,74.30
2017-06-13T22:20:03.412Z,73.60
2017-06-13T22:22:31.075Z,74.00
2017-06-13T22:24:58.658Z,73.70
2017-06-13T22:27:26.247Z,73.60
2017-06-13T22:29:53.838Z,73.10
2017-06-13T22:32:22.162Z,73.50
2017-06-13T22:34:49.816Z,73.40
2017-06-13T22:37:17.373Z,73.90
2017-06-13T22:39:44.986Z,73.90
2017-06-13T22:42:12.584Z,73.80
2017-06-13T22:44:40.154Z,74.20
2017-06-13T22:47:07.758Z,75.00
2017-06-13T22:49:35.342Z,75.30
2017-06-13T22:52:03.672Z,74.80
2017-06-13T22:54:31.247Z,74.70
2017-06-13T22:56:58.818Z,74.90
2017-06-13T22:59:26.381Z,74.70
2017-06-13T23:01:53.981Z,74.50
2017-06-13T23:04:22.426Z,74.30
2017-06-13T23:06:49.986Z,74.20
2017-06-13T23:09:17.591Z,74.80
2017-06-13T23:11:45.158Z,75.30
2017-06-13T23:14:12.736Z,75.10
2017-06-13T23:16:40.341Z,75.20
2017-06-13T23:19:07.910Z,75.00
2017-06-13T23:21:36.241Z,75.60
2017-06-13T23:24:03.845Z,75.40
2017-06-13T23:26:31.416Z,75.00
2017-06-13T23:28:59.757Z,75.50
2017-06-13T23:31:27.355Z,75.50
2017-06-13T23:33:55.679Z,76.70
2017-06-13T23:36:23.262Z,75.80
2017-06-13T23:38:50.827Z,76.60
2017-06-13T23:41:18.390Z,76.20
2017-06-13T23:43:45.966Z,76.50
2017-06-13T23:46:13.530Z,76.30
2017-06-13T23:48:41.898Z,76.40
2017-06-13T23:51:09.486Z,76.30
2017-06-13T23:53:37.815Z,76.80
2017-06-13T23:56:05.402Z,76.80
2017-06-13T23:58:33.022Z,76.90
